createdAt,value
2018-11-06T00:00:20.201Z,10.13
2018-11-06T00:02:53.185Z,14.17
2018-11-06T00:05:21.926Z,18.17
2018-11-06T00:07:50.672Z,12.33
2018-11-06T00:10:19.397Z,12.80
2018-11-06T00:12:48.114Z,13.77
2018-11-06T00:15:16.826Z,12.90
2018-11-06T00:17:45.601Z,10.70
2018-11-06T00:20:15.169Z,9.90
2018-11-06T00:22:43.905Z,8.87
2018-11-06T00:25:13.365Z,9.10
2018-11-06T00:27:42.257Z,10.33
2018-11-06T00:30:12.365Z,10.10
2018-11-06T00:32:41.573Z,10.00
2018-11-06T00:35:11.582Z,9.00
2018-11-06T00:37:41.321Z,8.97
2018-11-06T00:40:10.043Z,8.53
2018-11-06T00:42:39.064Z,9.63
2018-11-06T00:45:10.215Z,10.07
2018-11-06T00:47:39.201Z,19.20
2018-11-06T00:50:09.243Z,16.83
2018-11-06T00:52:38.541Z,18.80
2018-11-06T00:55:08.109Z,19.30
2018-11-06T00:57:37.830Z,21.13
2018-11-06T01:00:09.192Z,12.37
2018-11-06T01:02:37.937Z,11.13
2018-11-06T01:05:07.537Z,11.27
2018-11-06T01:07:36.317Z,11.10
2018-11-06T01:10:05.925Z,10.70
2018-11-06T01:12:35.481Z,10.07
2018-11-06T01:15:04.669Z,11.17
2018-11-06T01:17:33.553Z,10.10
2018-11-06T01:20:02.257Z,10.60
2018-11-06T01:22:31.432Z,9.90
2018-11-06T01:25:01.355Z,11.07
2018-11-06T01:27:30.071Z,10.20
2018-11-06T01:29:58.814Z,13.03
2018-11-06T01:32:27.525Z,9.73
2018-11-06T01:34:56.244Z,11.53
2018-11-06T01:37:24.977Z,10.40
2018-11-06T01:39:53.688Z,10.93
2018-11-06T01:42:22.427Z,10.63
2018-11-06T01:44:51.169Z,10.40
2018-11-06T01:47:19.894Z,10.00
2018-11-06T01:49:48.619Z,10.77
2018-11-06T01:52:17.345Z,9.70
2018-11-06T01:54:46.094Z,10.53
2018-11-06T01:57:14.826Z,9.73
2018-11-06T01:59:43.545Z,10.13
2018-11-06T02:02:12.264Z,9.33
2018-11-06T02:04:41.022Z,10.03
2018-11-06T02:07:09.738Z,9.43
2018-11-06T02:09:38.493Z,10.90
2018-11-06T02:12:07.217Z,9.60
2018-11-06T02:14:35.956Z,10.67
2018-11-06T02:17:04.899Z,8.67
2018-11-06T02:19:33.737Z,9.53
2018-11-06T02:22:02.453Z,9.20
2018-11-06T02:24:31.178Z,8.73
2018-11-06T02:26:59.926Z,9.47
2018-11-06T02:29:28.669Z,8.83
2018-11-06T02:31:57.385Z,9.17
2018-11-06T02:34:26.093Z,9.70
2018-11-06T02:36:54.821Z,9.33
2018-11-06T02:39:23.554Z,6.87
2018-11-06T02:41:52.257Z,7.83
2018-11-06T02:44:20.986Z,5.87
2018-11-06T02:46:49.730Z,8.73
2018-11-06T02:49:18.459Z,9.30
2018-11-06T02:51:47.185Z,8.10
2018-11-06T02:54:15.902Z,8.40
2018-11-06T02:56:44.613Z,8.17
2018-11-06T02:59:13.337Z,9.17
2018-11-06T03:01:42.069Z,8.00
2018-11-06T03:04:10.794Z,8.47
2018-11-06T03:06:39.521Z,8.47
2018-11-06T03:09:08.554Z,9.13
2018-11-06T03:11:37.455Z,8.63
2018-11-06T03:14:06.146Z,8.83
2018-11-06T03:16:58.699Z,8.17
2018-11-06T03:19:32.825Z,8.23
2018-11-06T03:22:07.180Z,9.00
2018-11-06T03:24:41.393Z,9.37
2018-11-06T03:27:13.910Z,10.30
2018-11-06T03:29:42.599Z,8.73
2018-11-06T03:32:11.306Z,8.33
2018-11-06T03:34:40.034Z,10.23
2018-11-06T03:37:09.037Z,12.83
2018-11-06T03:39:37.745Z,9.07
2018-11-06T03:42:06.614Z,6.73
2018-11-06T03:44:35.326Z,9.33
2018-11-06T03:47:04.313Z,8.97
2018-11-06T03:49:33.001Z,8.83
2018-11-06T03:52:01.693Z,9.70
2018-11-06T03:54:30.401Z,8.20
2018-11-06T03:56:59.129Z,7.97
2018-11-06T03:59:27.842Z,8.37
2018-11-06T04:01:56.544Z,8.67
2018-11-06T04:04:25.284Z,10.60
2018-11-06T04:06:54.002Z,8.40
2018-11-06T04:09:22.710Z,8.57
2018-11-06T04:11:51.408Z,8.43
2018-11-06T04:14:20.142Z,5.87
2018-11-06T04:16:48.834Z,8.30
2018-11-06T04:19:17.529Z,9.17
2018-11-06T04:21:46.302Z,8.70
2018-11-06T04:24:15.009Z,8.07
2018-11-06T04:26:43.715Z,7.57
2018-11-06T04:29:12.401Z,7.47
2018-11-06T04:31:41.408Z,6.70
2018-11-06T04:34:10.137Z,7.17
2018-11-06T04:36:38.833Z,7.17
2018-11-06T04:39:08.921Z,7.23
2018-11-06T04:41:37.609Z,8.63
2018-11-06T04:44:06.725Z,8.27
2018-11-06T04:46:35.435Z,7.47
2018-11-06T04:49:04.552Z,6.60
2018-11-06T04:51:33.253Z,7.53
2018-11-06T04:54:02.655Z,7.93
2018-11-06T04:56:31.966Z,7.10
2018-11-06T04:59:00.677Z,7.13
2018-11-06T05:01:29.393Z,7.10
2018-11-06T05:03:58.085Z,7.67
2018-11-06T05:06:26.817Z,7.27
2018-11-06T05:08:55.517Z,7.37
2018-11-06T05:11:24.217Z,6.63
2018-11-06T05:13:52.961Z,6.80
2018-11-06T05:16:21.629Z,6.20
2018-11-06T05:18:50.341Z,5.87
2018-11-06T05:21:19.041Z,5.27
2018-11-06T05:23:47.754Z,5.37
2018-11-06T05:26:16.454Z,5.60
2018-11-06T05:31:57.533Z,5.63
2018-11-06T05:34:26.441Z,6.50
2018-11-06T05:36:55.137Z,5.13
2018-11-06T05:39:23.877Z,4.60
2018-11-06T05:41:52.625Z,7.13
2018-11-06T05:44:21.350Z,6.20
2018-11-06T05:46:50.046Z,6.27
2018-11-06T05:49:18.745Z,5.70
2018-11-06T05:51:47.459Z,5.87
2018-11-06T05:54:16.162Z,5.70
2018-11-06T05:56:44.865Z,6.53
2018-11-06T05:59:13.607Z,7.17
2018-11-06T06:01:48.869Z,7.47
2018-11-06T06:04:17.614Z,7.93
2018-11-06T06:06:46.318Z,6.87
2018-11-06T06:09:15.016Z,7.07
2018-11-06T06:11:43.753Z,7.43
2018-11-06T06:14:12.446Z,6.97
2018-11-06T06:16:41.156Z,6.73
2018-11-06T06:19:26.422Z,7.40
2018-11-06T06:21:55.141Z,6.83
2018-11-06T06:24:24.002Z,7.00
2018-11-06T06:26:52.734Z,6.30
2018-11-06T06:29:21.455Z,6.37
2018-11-06T06:31:50.167Z,6.60
2018-11-06T06:34:18.883Z,4.10
2018-11-06T06:36:47.594Z,6.53
2018-11-06T06:39:16.321Z,6.47
2018-11-06T06:41:48.170Z,8.17
2018-11-06T06:44:16.862Z,5.57
2018-11-06T06:46:45.562Z,5.87
2018-11-06T06:49:14.273Z,4.63
2018-11-06T06:51:42.982Z,7.17
2018-11-06T06:54:11.785Z,5.70
2018-11-06T06:56:40.414Z,6.83
2018-11-06T06:59:25.733Z,6.90
2018-11-06T07:01:54.445Z,6.07
2018-11-06T07:04:23.165Z,4.33
2018-11-06T07:06:51.864Z,4.03
2018-11-06T07:09:20.794Z,4.90
2018-11-06T07:12:09.769Z,4.87
2018-11-06T07:14:46.520Z,5.20
2018-11-06T07:17:15.217Z,4.90
2018-11-06T07:19:43.926Z,5.03
2018-11-06T07:22:17.862Z,3.30
2018-11-06T07:30:29.269Z,3.50
2018-11-06T07:36:02.545Z,5.13
2018-11-06T07:38:31.249Z,4.50
2018-11-06T07:41:00.143Z,5.07
2018-11-06T07:43:28.793Z,5.83
2018-11-06T07:45:57.533Z,5.23
2018-11-06T07:48:26.269Z,4.00
2018-11-06T07:50:54.970Z,4.30
2018-11-06T07:53:23.683Z,7.33
2018-11-06T07:55:52.459Z,5.40
2018-11-06T07:58:21.089Z,5.20
2018-11-06T08:00:49.843Z,4.00
2018-11-06T08:03:18.541Z,4.47
2018-11-06T08:05:47.242Z,4.57
2018-11-06T08:11:07.041Z,5.30
2018-11-06T08:13:45.517Z,5.13
2018-11-06T08:16:14.271Z,5.40
2018-11-06T08:18:42.973Z,5.30
2018-11-06T08:21:12.738Z,5.80
2018-11-06T08:23:41.504Z,7.10
2018-11-06T08:26:10.189Z,6.53
2018-11-06T08:28:38.866Z,5.83
2018-11-06T08:31:08.045Z,5.97
2018-11-06T08:33:36.245Z,5.20
2018-11-06T08:36:04.950Z,5.43
2018-11-06T08:38:33.746Z,5.80
2018-11-06T08:41:02.404Z,5.27
2018-11-06T08:43:46.461Z,5.67
2018-11-06T08:46:15.154Z,5.53
2018-11-06T08:48:43.855Z,5.20
2018-11-06T08:51:12.562Z,4.80
2018-11-06T08:53:41.290Z,5.63
2018-11-06T08:56:17.721Z,4.60
2018-11-06T08:58:46.434Z,6.07
2018-11-06T09:01:15.138Z,6.03
2018-11-06T09:03:43.865Z,5.60
2018-11-06T09:06:12.553Z,5.60
2018-11-06T09:08:41.278Z,6.53
2018-11-06T09:11:20.894Z,7.53
2018-11-06T09:13:49.638Z,8.07
2018-11-06T09:16:18.357Z,9.07
2018-11-06T09:18:47.057Z,6.57
2018-11-06T09:21:15.767Z,9.20
2018-11-06T09:23:50.925Z,8.47
2018-11-06T09:26:19.621Z,8.07
2018-11-06T09:28:55.189Z,7.33
2018-11-06T09:31:25.090Z,7.97
2018-11-06T09:33:53.785Z,7.63
2018-11-06T09:36:22.502Z,6.87
2018-11-06T09:38:51.193Z,7.33
2018-11-06T09:41:20.141Z,6.27
2018-11-06T09:43:48.817Z,5.60
2018-11-06T09:46:17.505Z,6.63
2018-11-06T09:48:46.250Z,5.63
2018-11-06T09:51:14.906Z,5.83
2018-11-06T09:53:43.625Z,6.30
2018-11-06T09:56:12.333Z,6.43
2018-11-06T09:58:41.032Z,7.07
2018-11-06T10:01:17.418Z,6.73
2018-11-06T10:03:46.125Z,7.80
2018-11-06T10:06:15.012Z,8.50
2018-11-06T10:08:43.936Z,9.00
2018-11-06T10:11:12.630Z,8.10
2018-11-06T10:13:57.981Z,6.87
2018-11-06T10:16:26.694Z,8.33
2018-11-06T10:18:55.389Z,8.47
2018-11-06T10:21:24.138Z,7.80
2018-11-06T10:24:10.228Z,8.23
2018-11-06T10:26:39.169Z,9.03
2018-11-06T10:29:07.864Z,9.40
2018-11-06T10:31:37.641Z,8.03
2018-11-06T10:34:06.471Z,8.27
2018-11-06T10:36:35.177Z,7.33
2018-11-06T10:39:07.735Z,8.13
2018-11-06T10:41:36.645Z,8.00
2018-11-06T10:44:05.598Z,8.50
2018-11-06T10:46:34.401Z,8.80
2018-11-06T10:49:03.126Z,8.50
2018-11-06T10:51:31.855Z,8.20
2018-11-06T10:54:00.549Z,8.63
2018-11-06T10:56:29.285Z,7.70
2018-11-06T10:58:58.027Z,7.97
2018-11-06T11:01:32.001Z,7.70
2018-11-06T11:04:07.029Z,8.23
2018-11-06T11:06:35.698Z,7.07
2018-11-06T11:09:06.837Z,8.30
2018-11-06T11:11:35.703Z,8.90
2018-11-06T11:14:04.653Z,7.70
2018-11-06T11:16:38.438Z,7.10
2018-11-06T11:19:07.291Z,8.00
2018-11-06T11:21:36.210Z,7.40
2018-11-06T11:24:11.827Z,8.33
2018-11-06T11:26:40.873Z,7.67
2018-11-06T11:29:09.770Z,9.47
2018-11-06T11:31:38.634Z,8.23
2018-11-06T11:34:07.523Z,7.83
2018-11-06T11:36:36.342Z,7.53
2018-11-06T11:39:09.558Z,9.43
2018-11-06T11:41:38.630Z,8.33
2018-11-06T11:44:07.791Z,8.93
2018-11-06T11:46:36.774Z,11.00
2018-11-06T11:49:05.708Z,9.33
2018-11-06T11:51:34.531Z,9.63
2018-11-06T11:54:03.399Z,10.47
2018-11-06T11:56:32.238Z,9.93
2018-11-06T11:59:01.124Z,9.00
2018-11-06T12:01:29.987Z,8.40
2018-11-06T12:03:58.815Z,7.87
2018-11-06T12:06:27.651Z,7.90
2018-11-06T12:08:56.523Z,7.37
2018-11-06T12:11:25.351Z,7.27
2018-11-06T12:13:54.138Z,6.60
2018-11-06T12:16:22.991Z,9.10
2018-11-06T12:18:51.831Z,8.33
2018-11-06T12:21:20.763Z,9.77
2018-11-06T12:23:49.630Z,8.10
2018-11-06T12:29:12.237Z,8.43
2018-11-06T12:31:40.985Z,9.33
2018-11-06T12:34:09.690Z,8.90
2018-11-06T12:36:38.551Z,8.57
2018-11-06T12:39:08.779Z,9.30
2018-11-06T12:41:38.546Z,9.13
2018-11-06T12:44:07.670Z,8.70
2018-11-06T12:46:36.589Z,6.80
2018-11-06T12:49:05.494Z,7.03
2018-11-06T12:51:34.338Z,5.80
2018-11-06T12:54:03.306Z,5.97
2018-11-06T12:56:32.014Z,6.70
2018-11-06T12:59:00.744Z,6.13
2018-11-06T13:01:29.670Z,8.57
2018-11-06T13:03:58.372Z,7.27
2018-11-06T13:06:27.081Z,8.93
2018-11-06T13:08:55.857Z,9.33
2018-11-06T13:11:24.557Z,9.80
2018-11-06T13:13:53.266Z,9.10
2018-11-06T13:16:23.014Z,8.40
2018-11-06T13:18:51.769Z,7.87
2018-11-06T13:21:20.506Z,7.40
2018-11-06T13:23:49.402Z,8.33
2018-11-06T13:26:18.365Z,8.73
2018-11-06T13:28:47.149Z,7.30
2018-11-06T13:31:16.142Z,9.80
2018-11-06T13:33:45.004Z,9.40
2018-11-06T13:36:13.826Z,8.63
2018-11-06T13:38:42.706Z,8.40
2018-11-06T13:41:11.526Z,9.20
2018-11-06T13:43:40.545Z,10.50
2018-11-06T13:46:09.241Z,9.67
2018-11-06T13:51:33.155Z,9.33
2018-11-06T13:54:01.878Z,8.80
2018-11-06T13:59:31.518Z,10.47
2018-11-06T14:02:00.294Z,9.20
2018-11-06T14:04:29.104Z,9.53
2018-11-06T14:06:57.765Z,9.30
2018-11-06T14:09:28.547Z,9.87
2018-11-06T14:11:57.259Z,8.53
2018-11-06T14:14:25.985Z,9.43
2018-11-06T14:16:54.705Z,8.40
2018-11-06T14:22:14.710Z,10.00
2018-11-06T14:24:43.430Z,8.60
2018-11-06T14:27:12.295Z,8.60
2018-11-06T14:29:53.543Z,8.87
2018-11-06T14:32:22.422Z,8.97
2018-11-06T14:34:51.259Z,8.30
2018-11-06T14:37:20.122Z,8.10
2018-11-06T14:39:48.956Z,7.57
2018-11-06T14:42:17.835Z,7.67
2018-11-06T14:44:46.610Z,7.10
2018-11-06T14:47:15.422Z,7.70
2018-11-06T14:49:44.215Z,7.73
2018-11-06T14:52:13.062Z,6.40
2018-11-06T14:54:41.967Z,7.90
2018-11-06T14:57:10.811Z,7.10
2018-11-06T14:59:39.695Z,6.33
2018-11-06T15:02:08.752Z,6.70
2018-11-06T15:04:37.599Z,6.20
2018-11-06T15:07:06.410Z,6.63
2018-11-06T15:09:35.193Z,7.50
2018-11-06T15:12:03.938Z,8.33
2018-11-06T15:14:32.642Z,7.70
2018-11-06T15:17:11.122Z,7.47
2018-11-06T15:19:39.829Z,7.63
2018-11-06T15:22:08.570Z,8.20
2018-11-06T15:24:37.284Z,6.97
2018-11-06T15:27:05.993Z,6.73
2018-11-06T15:29:34.697Z,6.07
2018-11-06T15:32:03.441Z,7.13
2018-11-06T15:34:32.154Z,6.47
2018-11-06T15:37:00.857Z,6.73
2018-11-06T15:39:29.644Z,6.33
2018-11-06T15:41:58.502Z,7.37
2018-11-06T15:44:27.017Z,7.03
2018-11-06T15:46:55.737Z,6.57
2018-11-06T15:49:24.442Z,7.10
2018-11-06T15:51:55.215Z,7.67
2018-11-06T15:54:24.153Z,7.67
2018-11-06T15:56:52.874Z,8.03
2018-11-06T15:59:21.577Z,9.93
2018-11-06T16:01:50.622Z,12.50
2018-11-06T16:04:19.286Z,11.90
2018-11-06T16:06:47.998Z,11.13
2018-11-06T16:09:16.755Z,9.03
2018-11-06T16:11:45.453Z,9.87
2018-11-06T16:14:14.153Z,8.17
2018-11-06T16:16:47.789Z,8.83
2018-11-06T16:19:16.511Z,11.87
2018-11-06T16:21:45.209Z,8.53
2018-11-06T16:24:14.000Z,10.37
2018-11-06T16:26:56.061Z,11.47
2018-11-06T16:29:24.801Z,8.27
2018-11-06T16:31:53.504Z,9.13
2018-11-06T16:34:24.450Z,8.60
2018-11-06T16:36:53.174Z,9.73
2018-11-06T16:39:21.877Z,10.30
2018-11-06T16:41:50.616Z,9.83
2018-11-06T16:44:19.329Z,11.37
2018-11-06T16:47:03.652Z,10.50
2018-11-06T16:49:32.365Z,10.60
2018-11-06T16:52:01.321Z,9.07
2018-11-06T16:54:30.033Z,10.03
2018-11-06T16:57:09.585Z,13.13
2018-11-06T16:59:38.297Z,12.40
2018-11-06T17:02:06.952Z,13.13
2018-11-06T17:04:35.689Z,12.20
2018-11-06T17:07:04.669Z,11.10
2018-11-06T17:09:33.401Z,11.23
2018-11-06T17:12:02.206Z,14.03
2018-11-06T17:14:31.017Z,11.07
2018-11-06T17:16:59.750Z,10.77
2018-11-06T17:19:28.462Z,11.10
2018-11-06T17:21:57.173Z,10.50
2018-11-06T17:24:49.229Z,12.70
2018-11-06T17:27:17.958Z,10.17
2018-11-06T17:29:46.834Z,12.33
2018-11-06T17:32:15.546Z,11.10
2018-11-06T17:34:44.258Z,8.97
2018-11-06T17:37:13.085Z,10.97
2018-11-06T17:39:41.923Z,12.83
2018-11-06T17:42:10.561Z,12.53
2018-11-06T17:44:39.274Z,11.80
2018-11-06T17:47:07.983Z,12.80
2018-11-06T17:55:31.026Z,10.03
2018-11-06T17:57:59.677Z,9.47
2018-11-06T18:00:28.434Z,11.73
2018-11-06T18:02:57.158Z,10.93
2018-11-06T18:05:26.307Z,11.53
2018-11-06T18:07:55.080Z,10.80
2018-11-06T18:10:23.862Z,11.70
2018-11-06T18:12:52.530Z,11.80
2018-11-06T18:15:21.266Z,13.03
2018-11-06T18:17:50.174Z,13.67
2018-11-06T18:20:18.742Z,13.23
2018-11-06T18:22:47.460Z,12.67
2018-11-06T18:25:16.482Z,12.73
2018-11-06T18:27:45.138Z,13.37
2018-11-06T18:30:15.833Z,16.10
2018-11-06T18:32:44.602Z,15.00
2018-11-06T18:35:14.377Z,14.73
2018-11-06T18:37:43.298Z,14.83
2018-11-06T18:40:14.619Z,15.80
2018-11-06T18:42:44.170Z,13.67
2018-11-06T18:45:13.695Z,12.30
2018-11-06T18:47:42.578Z,10.13
2018-11-06T18:50:12.699Z,8.40
2018-11-06T18:52:42.734Z,8.83
2018-11-06T18:55:25.166Z,8.23
2018-11-06T18:57:55.047Z,8.60
2018-11-06T19:00:24.311Z,9.13
2018-11-06T19:02:56.699Z,10.77
2018-11-06T19:05:26.625Z,9.97
2018-11-06T19:07:55.447Z,11.43
2018-11-06T19:10:24.250Z,11.40
2018-11-06T19:12:52.986Z,10.93
2018-11-06T19:15:22.953Z,12.03
2018-11-06T19:17:51.818Z,10.40
2018-11-06T19:20:20.525Z,11.03
2018-11-06T19:22:49.241Z,9.93
2018-11-06T19:25:17.951Z,10.20
2018-11-06T19:27:46.668Z,9.77
2018-11-06T19:30:17.785Z,9.87
2018-11-06T19:32:46.598Z,8.33
2018-11-06T19:35:15.348Z,8.50
2018-11-06T19:37:44.295Z,7.80
2018-11-06T19:40:14.258Z,9.23
2018-11-06T19:42:43.878Z,9.20
2018-11-06T19:45:13.074Z,10.10
2018-11-06T19:47:41.782Z,9.40
2018-11-06T19:50:17.153Z,9.20
2018-11-06T19:52:53.609Z,9.97
2018-11-06T19:55:23.180Z,11.13
2018-11-06T19:57:51.949Z,12.40
2018-11-06T20:00:21.913Z,9.90
2018-11-06T20:02:51.769Z,9.53
2018-11-06T20:05:20.638Z,8.97
2018-11-06T20:07:50.284Z,9.70
2018-11-06T20:10:20.612Z,9.80
2018-11-06T20:12:50.298Z,9.20
2018-11-06T20:15:26.270Z,8.67
2018-11-06T20:17:55.011Z,9.63
2018-11-06T20:20:25.049Z,11.13
2018-11-06T20:23:00.485Z,10.73
2018-11-06T20:25:29.254Z,10.17
2018-11-06T20:27:57.962Z,9.13
2018-11-06T20:30:27.314Z,11.50
2018-11-06T20:33:01.238Z,10.90
2018-11-06T20:35:30.275Z,11.13
2018-11-06T20:37:59.026Z,11.70
2018-11-06T20:40:27.974Z,14.60
2018-11-06T20:42:56.842Z,12.30
2018-11-06T20:45:25.498Z,10.03
2018-11-06T20:47:54.670Z,12.27
2018-11-06T20:50:24.341Z,12.10
2018-11-06T20:52:53.174Z,12.90
2018-11-06T20:55:21.842Z,10.37
2018-11-06T20:57:50.841Z,10.80
2018-11-06T21:00:22.234Z,11.73
2018-11-06T21:02:52.219Z,12.23
2018-11-06T21:05:21.174Z,13.60
2018-11-06T21:07:56.921Z,14.50
2018-11-06T21:10:27.198Z,11.50
2018-11-06T21:12:56.003Z,14.37
2018-11-06T21:15:33.285Z,13.00
2018-11-06T21:18:02.159Z,14.63
2018-11-06T21:20:30.781Z,13.40
2018-11-06T21:22:59.530Z,15.97
2018-11-06T21:25:28.370Z,12.80
2018-11-06T21:27:57.006Z,15.27
2018-11-06T21:30:25.812Z,14.90
2018-11-06T21:32:54.732Z,15.17
2018-11-06T21:35:23.468Z,14.90
2018-11-06T21:37:52.204Z,15.23
2018-11-06T21:40:21.626Z,17.13
2018-11-06T21:42:50.822Z,15.50
2018-11-06T21:45:19.796Z,18.50
2018-11-06T21:47:49.285Z,17.90
2018-11-06T21:50:18.398Z,16.13
2018-11-06T21:52:47.149Z,19.63
2018-11-06T21:55:17.077Z,18.93
2018-11-06T21:57:45.807Z,20.13
2018-11-06T22:00:15.884Z,19.43
2018-11-06T22:02:44.518Z,18.67
2018-11-06T22:05:14.598Z,21.10
2018-11-06T22:08:00.862Z,21.50
2018-11-06T22:10:29.759Z,19.47
2018-11-06T22:12:58.492Z,21.33
2018-11-06T22:15:27.186Z,21.13
2018-11-06T22:17:55.919Z,21.47
2018-11-06T22:20:24.622Z,17.67
2018-11-06T22:22:53.360Z,20.20
2018-11-06T22:25:22.266Z,18.53
2018-11-06T22:27:50.969Z,17.53
2018-11-06T22:30:19.670Z,18.70
2018-11-06T22:32:48.436Z,17.67
2018-11-06T22:38:08.495Z,18.67
2018-11-06T22:40:37.116Z,17.97
2018-11-06T22:43:05.832Z,18.77
2018-11-06T22:45:34.537Z,20.47
2018-11-06T22:48:03.253Z,19.47
2018-11-06T22:50:31.990Z,20.07
2018-11-06T22:53:00.741Z,16.73
2018-11-06T22:55:29.421Z,17.97
2018-11-06T22:57:58.175Z,19.20
2018-11-06T23:01:36.329Z,19.00
2018-11-06T23:04:05.542Z,18.67
2018-11-06T23:06:34.264Z,16.90
2018-11-06T23:09:03.649Z,17.30
2018-11-06T23:11:32.399Z,22.67
2018-11-06T23:14:01.153Z,18.43
2018-11-06T23:16:29.917Z,21.37
2018-11-06T23:18:58.635Z,20.57
2018-11-06T23:21:27.361Z,20.47
2018-11-06T23:23:56.090Z,20.93
2018-11-06T23:26:24.916Z,19.73
2018-11-06T23:28:53.562Z,17.53
2018-11-06T23:31:22.280Z,15.23
2018-11-06T23:33:51.019Z,20.10
2018-11-06T23:36:19.772Z,17.73
2018-11-06T23:38:48.481Z,24.43
2018-11-06T23:41:17.213Z,23.73
2018-11-06T23:43:45.948Z,19.30
2018-11-06T23:46:14.650Z,20.27
2018-11-06T23:48:43.385Z,19.97
2018-11-06T23:51:12.099Z,21.57
2018-11-06T23:53:40.797Z,18.07
2018-11-06T23:56:09.535Z,16.50
2018-11-06T23:58:38.270Z,18.17
